createdAt,value
2022-10-21T00:00:30.835Z,23.63
2022-10-21T00:05:32.536Z,23.05
2022-10-21T00:10:34.369Z,18.45
2022-10-21T00:15:36.544Z,20.85
2022-10-21T00:20:41.234Z,23.00
2022-10-21T00:25:42.920Z,24.02
2022-10-21T00:30:45.899Z,16.15
2022-10-21T00:35:55.316Z,20.13
2022-10-21T00:40:57.041Z,22.63
2022-10-21T00:46:05.103Z,16.58
2022-10-21T00:51:12.724Z,18.55
2022-10-21T00:56:24.337Z,20.52
2022-10-21T01:01:26.188Z,16.33
2022-10-21T01:06:28.801Z,18.00
2022-10-21T01:11:33.144Z,16.63
2022-10-21T01:17:01.612Z,16.67
2022-10-21T01:22:40.889Z,17.63
2022-10-21T01:28:07.079Z,16.13
2022-10-21T01:33:38.736Z,21.30
2022-10-21T01:39:02.102Z,18.95
2022-10-21T01:44:16.121Z,19.20
2022-10-21T01:49:30.091Z,18.92
2022-10-21T01:54:42.717Z,16.52
2022-10-21T01:59:45.573Z,21.33
2022-10-21T02:04:50.676Z,17.15
2022-10-21T02:09:52.345Z,13.35
2022-10-21T02:14:55.376Z,12.35
2022-10-21T02:20:00.888Z,19.02
2022-10-21T02:25:10.148Z,16.67
2022-10-21T02:30:12.479Z,12.85
2022-10-21T02:35:22.973Z,14.98
2022-10-21T02:40:35.520Z,19.10
2022-10-21T02:45:38.640Z,20.55
2022-10-21T02:50:40.395Z,18.35
2022-10-21T02:55:42.153Z,17.33
2022-10-21T03:00:43.870Z,11.48
2022-10-21T03:05:46.071Z,26.98
2022-10-21T03:10:53.530Z,18.25
2022-10-21T03:15:55.690Z,22.48
2022-10-21T03:20:57.372Z,16.80
2022-10-21T03:25:59.011Z,25.02
2022-10-21T03:31:00.731Z,21.73
2022-10-21T03:36:02.476Z,21.08
2022-10-21T03:41:04.209Z,21.13
2022-10-21T03:46:06.376Z,23.98
2022-10-21T03:51:08.065Z,15.63
2022-10-21T03:56:09.746Z,19.55
2022-10-21T04:01:13.313Z,16.15
2022-10-21T04:06:14.995Z,15.90
2022-10-21T04:11:16.717Z,15.80
2022-10-21T04:16:20.584Z,17.70
2022-10-21T04:26:25.002Z,17.98
2022-10-21T04:31:31.273Z,17.58
2022-10-21T04:36:33.830Z,31.88
2022-10-21T04:41:35.983Z,19.63
2022-10-21T04:46:38.130Z,17.52
2022-10-21T04:51:39.798Z,22.65
2022-10-21T04:56:41.975Z,24.92
2022-10-21T05:01:44.033Z,20.85
2022-10-21T05:06:45.687Z,17.42
2022-10-21T05:11:47.371Z,17.65
2022-10-21T05:16:49.458Z,18.33
2022-10-21T05:21:51.157Z,19.50
2022-10-21T05:26:52.905Z,21.55
2022-10-21T05:31:54.973Z,18.63
2022-10-21T05:36:56.647Z,24.58
2022-10-21T05:41:58.323Z,18.52
2022-10-21T05:46:59.994Z,23.35
2022-10-21T05:52:02.432Z,21.02
2022-10-21T05:57:04.150Z,19.75
2022-10-21T06:02:06.102Z,19.10
2022-10-21T06:07:08.374Z,17.38
2022-10-21T06:12:10.341Z,22.83
2022-10-21T06:17:12.845Z,65.60
2022-10-21T06:22:15.212Z,73.90
2022-10-21T06:27:17.427Z,43.88
2022-10-21T06:32:19.608Z,37.92
2022-10-21T06:37:24.770Z,23.95
2022-10-21T06:42:29.605Z,25.33
2022-10-21T06:47:31.301Z,33.63
2022-10-21T06:52:33.664Z,24.85
2022-10-21T06:57:35.827Z,27.92
2022-10-21T07:02:38.061Z,28.50
2022-10-21T07:07:40.303Z,29.40
2022-10-21T07:12:42.587Z,33.65
2022-10-21T07:17:44.323Z,17.67
2022-10-21T07:22:46.022Z,20.80
2022-10-21T07:27:49.066Z,18.48
2022-10-21T07:32:51.165Z,26.75
2022-10-21T07:37:53.266Z,41.58
2022-10-21T07:42:56.582Z,34.80
2022-10-21T07:47:58.356Z,19.98
2022-10-21T07:53:10.232Z,19.23
2022-10-21T07:58:14.323Z,29.85
2022-10-21T08:03:15.995Z,24.35
2022-10-21T08:08:17.783Z,22.25
2022-10-21T08:13:20.647Z,17.63
2022-10-21T08:18:23.191Z,21.10
2022-10-21T08:23:26.422Z,19.08
2022-10-21T08:28:29.812Z,13.93
2022-10-21T08:33:32.164Z,16.45
2022-10-21T08:38:34.448Z,12.75
2022-10-21T08:43:38.920Z,22.73
2022-10-21T08:48:47.646Z,17.10
2022-10-21T08:53:53.547Z,12.10
2022-10-21T08:58:55.306Z,8.73
2022-10-21T09:04:00.086Z,17.38
2022-10-21T09:09:11.317Z,12.05
2022-10-21T09:19:42.597Z,17.25
2022-10-21T09:24:52.538Z,17.50
2022-10-21T09:30:00.711Z,18.20
2022-10-21T09:35:24.103Z,13.82
2022-10-21T09:40:28.946Z,20.65
2022-10-21T09:45:40.731Z,13.80
2022-10-21T09:50:43.036Z,10.50
2022-10-21T09:55:47.619Z,10.75
2022-10-21T10:00:50.418Z,17.10
2022-10-21T10:05:52.163Z,6.22
2022-10-21T10:11:10.955Z,10.07
2022-10-21T10:16:28.146Z,17.35
2022-10-21T10:21:29.779Z,8.85
2022-10-21T10:26:42.633Z,12.10
2022-10-21T10:31:50.997Z,7.75
2022-10-21T10:37:05.795Z,12.25
2022-10-21T10:42:08.115Z,4.75
2022-10-21T10:47:20.981Z,10.30
2022-10-21T10:52:24.439Z,13.55
2022-10-21T10:57:39.037Z,6.25
2022-10-21T11:03:04.432Z,12.18
2022-10-21T11:08:17.517Z,10.02
2022-10-21T11:13:24.081Z,7.85
2022-10-21T11:19:10.746Z,8.93
2022-10-21T11:24:42.793Z,12.18
2022-10-21T11:29:47.545Z,7.80
2022-10-21T11:34:58.400Z,9.48
2022-10-21T11:40:31.204Z,7.93
2022-10-21T11:51:06.057Z,7.80
2022-10-21T11:56:19.384Z,11.48
2022-10-21T12:01:46.749Z,9.70
2022-10-21T12:07:00.649Z,16.55
2022-10-21T12:12:22.814Z,9.35
2022-10-21T12:17:25.393Z,12.73
2022-10-21T12:22:29.899Z,8.27
2022-10-21T12:28:06.590Z,8.38
2022-10-21T12:33:39.002Z,7.75
2022-10-21T12:38:54.926Z,7.18
2022-10-21T12:44:03.008Z,7.45
2022-10-21T12:49:30.594Z,10.43
2022-10-21T12:54:39.699Z,7.35
2022-10-21T12:59:43.202Z,6.75
2022-10-21T13:04:47.670Z,9.05
2022-10-21T13:09:52.402Z,5.00
2022-10-21T13:14:57.196Z,6.70
2022-10-21T13:20:17.953Z,5.85
2022-10-21T13:25:24.238Z,3.58
2022-10-21T13:30:29.430Z,7.05
2022-10-21T13:35:43.607Z,9.70
2022-10-21T13:41:10.409Z,4.05
2022-10-21T13:46:27.159Z,8.55
2022-10-21T13:51:31.645Z,6.75
2022-10-21T13:56:36.031Z,6.65
2022-10-21T14:01:46.510Z,9.85
2022-10-21T14:06:58.222Z,8.18
2022-10-21T14:12:06.412Z,4.30
2022-10-21T14:17:19.542Z,10.05
2022-10-21T14:22:25.445Z,9.82
2022-10-21T14:27:29.963Z,5.07
2022-10-21T14:32:32.231Z,4.15
2022-10-21T14:37:44.221Z,3.67
2022-10-21T14:42:49.760Z,5.93
2022-10-21T14:48:10.333Z,4.55
2022-10-21T14:53:23.568Z,2.92
2022-10-21T14:58:32.329Z,2.70
2022-10-21T15:03:42.957Z,2.80
2022-10-21T15:09:01.214Z,1.77
2022-10-21T15:14:26.157Z,2.08
2022-10-21T15:19:43.933Z,5.90
2022-10-21T15:24:46.783Z,6.05
2022-10-21T15:29:48.814Z,10.77
2022-10-21T15:34:52.060Z,5.72
2022-10-21T15:39:53.714Z,9.88
2022-10-21T15:44:55.406Z,6.90
2022-10-21T15:49:57.664Z,6.00
2022-10-21T15:54:59.390Z,4.53
2022-10-21T16:00:01.316Z,9.07
2022-10-21T16:05:03.462Z,7.32
2022-10-21T16:10:21.005Z,9.85
2022-10-21T16:15:24.010Z,8.32
2022-10-21T16:20:27.122Z,3.90
2022-10-21T16:25:28.819Z,8.52
2022-10-21T16:30:36.363Z,38.78
2022-10-21T16:35:38.464Z,16.60
2022-10-21T16:40:40.133Z,16.08
2022-10-21T16:45:43.401Z,13.35
2022-10-21T16:50:46.405Z,13.48
2022-10-21T16:55:48.438Z,8.93
2022-10-21T17:00:50.427Z,6.60
2022-10-21T17:05:52.524Z,24.73
2022-10-21T17:10:54.212Z,16.00
2022-10-21T17:15:55.882Z,12.27
2022-10-21T17:20:57.602Z,16.20
2022-10-21T17:25:59.385Z,11.90
2022-10-21T17:31:01.051Z,23.25
2022-10-21T17:36:02.749Z,17.33
2022-10-21T17:41:04.523Z,24.50
2022-10-21T17:46:06.600Z,30.95
2022-10-21T17:51:09.663Z,19.08
2022-10-21T17:56:12.002Z,18.83
2022-10-21T18:01:13.993Z,29.50
2022-10-21T18:06:16.180Z,21.38
2022-10-21T18:11:20.263Z,37.17
2022-10-21T18:16:22.752Z,15.35
2022-10-21T18:21:24.922Z,30.80
2022-10-21T18:26:29.031Z,26.52
2022-10-21T18:31:33.757Z,13.32
2022-10-21T18:36:35.465Z,18.35
2022-10-21T18:41:38.544Z,19.10
2022-10-21T18:46:42.064Z,19.85
2022-10-21T18:51:43.887Z,13.68
2022-10-21T18:56:45.686Z,16.92
2022-10-21T19:01:47.465Z,14.00
2022-10-21T19:06:49.165Z,43.30
2022-10-21T19:11:50.886Z,30.33
2022-10-21T19:16:52.977Z,27.85
2022-10-21T19:21:54.810Z,38.90
2022-10-21T19:26:58.598Z,30.13
2022-10-21T19:32:00.280Z,27.33
2022-10-21T19:37:01.993Z,31.98
2022-10-21T19:42:03.899Z,21.63
2022-10-21T19:47:05.641Z,27.63
2022-10-21T19:52:07.347Z,17.95
2022-10-21T19:57:09.460Z,20.45
2022-10-21T20:02:11.636Z,29.83
2022-10-21T20:07:13.327Z,16.60
2022-10-21T20:12:15.564Z,25.85
2022-10-21T20:17:18.422Z,28.48
2022-10-21T20:22:20.245Z,20.70
2022-10-21T20:27:21.936Z,20.15
2022-10-21T20:32:24.384Z,23.23
2022-10-21T20:37:26.085Z,35.13
2022-10-21T20:42:27.703Z,12.18
2022-10-21T20:47:30.936Z,8.80
2022-10-21T20:52:32.694Z,9.27
2022-10-21T20:57:36.978Z,13.13
2022-10-21T21:02:39.340Z,12.88
2022-10-21T21:07:41.476Z,19.83
2022-10-21T21:12:43.435Z,6.85
2022-10-21T21:17:48.466Z,7.95
2022-10-21T21:22:50.343Z,9.18
2022-10-21T21:27:52.010Z,12.82
2022-10-21T21:32:53.695Z,11.73
2022-10-21T21:37:55.366Z,11.48
2022-10-21T21:42:57.032Z,4.88
2022-10-21T21:47:58.791Z,11.55
2022-10-21T21:53:00.893Z,4.93
2022-10-21T21:58:03.051Z,6.68
2022-10-21T22:03:05.575Z,15.52
2022-10-21T22:08:07.650Z,12.15
2022-10-21T22:13:09.491Z,20.40
2022-10-21T22:18:11.131Z,15.10
2022-10-21T22:23:13.255Z,32.80
2022-10-21T22:28:15.374Z,21.58
2022-10-21T22:33:17.076Z,22.17
2022-10-21T22:38:19.158Z,19.65
2022-10-21T22:43:21.623Z,22.90
2022-10-21T22:48:23.462Z,18.40
2022-10-21T22:53:25.154Z,9.25
2022-10-21T22:58:26.808Z,7.88
2022-10-21T23:03:28.488Z,11.35
2022-10-21T23:08:30.198Z,5.60
2022-10-21T23:13:31.895Z,4.05
2022-10-21T23:18:33.776Z,3.83
2022-10-21T23:23:36.010Z,6.55
2022-10-21T23:28:37.820Z,4.88
2022-10-21T23:33:39.530Z,4.80
2022-10-21T23:38:41.291Z,5.03
2022-10-21T23:43:43.402Z,5.63
2022-10-21T23:48:45.450Z,5.72
2022-10-21T23:53:47.299Z,5.22
2022-10-21T23:58:48.978Z,6.65
